sensor_id;sensor_type;location;lat;lon;timestamp;temperature;humidity
16243;DHT22;11719;51.052;6.982;2023-04-03T00:00:43;10.60;99.90
16243;DHT22;11719;51.052;6.982;2023-04-03T00:03:09;10.40;99.90
16243;DHT22;11719;51.052;6.982;2023-04-03T00:05:34;10.40;99.90
16243;DHT22;11719;51.052;6.982;2023-04-03T00:08:01;10.30;99.90
16243;DHT22;11719;51.052;6.982;2023-04-03T00:10:27;10.20;99.90
16243;DHT22;11719;51.052;6.982;2023-04-03T00:12:54;10.30;99.90
16243;DHT22;11719;51.052;6.982;2023-04-03T00:15:19;10.40;99.90
16243;DHT22;11719;51.052;6.982;2023-04-03T00:17:45;10.40;99.90
16243;DHT22;11719;51.052;6.982;2023-04-03T00:20:11;10.20;99.90
16243;DHT22;11719;51.052;6.982;2023-04-03T00:22:37;10.30;99.90
16243;DHT22;11719;51.052;6.982;2023-04-03T00:25:03;10.40;99.90
16243;DHT22;11719;51.052;6.982;2023-04-03T00:27:29;10.50;99.90
16243;DHT22;11719;51.052;6.982;2023-04-03T00:29:55;10.60;99.90
16243;DHT22;11719;51.052;6.982;2023-04-03T00:32:21;10.80;99.90
16243;DHT22;11719;51.052;6.982;2023-04-03T00:34:46;11.00;99.90
16243;DHT22;11719;51.052;6.982;2023-04-03T00:37:12;11.10;99.90
16243;DHT22;11719;51.052;6.982;2023-04-03T00:39:38;11.20;99.90
16243;DHT22;11719;51.052;6.982;2023-04-03T00:42:04;11.30;99.90
16243;DHT22;11719;51.052;6.982;2023-04-03T00:47:04;11.90;99.90
16243;DHT22;11719;51.052;6.982;2023-04-03T00:49:31;11.90;99.90
16243;DHT22;11719;51.052;6.982;2023-04-03T00:51:58;11.80;99.90
16243;DHT22;11719;51.052;6.982;2023-04-03T00:54:25;11.60;99.90
16243;DHT22;11719;51.052;6.982;2023-04-03T00:56:53;11.40;99.90
16243;DHT22;11719;51.052;6.982;2023-04-03T00:59:31;11.40;99.90
16243;DHT22;11719;51.052;6.982;2023-04-03T01:01:59;11.10;99.90
16243;DHT22;11719;51.052;6.982;2023-04-03T01:04:37;11.10;99.90
16243;DHT22;11719;51.052;6.982;2023-04-03T01:07:12;11.00;99.90
16243;DHT22;11719;51.052;6.982;2023-04-03T01:09:40;10.90;99.90
16243;DHT22;11719;51.052;6.982;2023-04-03T01:12:41;10.80;99.90
16243;DHT22;11719;51.052;6.982;2023-04-03T01:15:15;10.70;99.90
16243;DHT22;11719;51.052;6.982;2023-04-03T01:17:54;10.50;99.90
16243;DHT22;11719;51.052;6.982;2023-04-03T01:25:45;10.50;99.90
16243;DHT22;11719;51.052;6.982;2023-04-03T01:28:21;10.50;99.90
16243;DHT22;11719;51.052;6.982;2023-04-03T01:33:38;10.60;99.90
16243;DHT22;11719;51.052;6.982;2023-04-03T01:36:05;10.50;99.90
16243;DHT22;11719;51.052;6.982;2023-04-03T01:38:32;10.40;99.90
16243;DHT22;11719;51.052;6.982;2023-04-03T01:40:58;10.20;99.90
16243;DHT22;11719;51.052;6.982;2023-04-03T01:43:23;10.40;99.90
16243;DHT22;11719;51.052;6.982;2023-04-03T01:45:49;10.30;99.90
16243;DHT22;11719;51.052;6.982;2023-04-03T01:48:17;10.40;99.90
16243;DHT22;11719;51.052;6.982;2023-04-03T01:50:43;10.40;99.90
16243;DHT22;11719;51.052;6.982;2023-04-03T01:53:09;10.50;99.90
16243;DHT22;11719;51.052;6.982;2023-04-03T01:55:35;10.70;99.90
16243;DHT22;11719;51.052;6.982;2023-04-03T02:00:35;11.20;99.90
16243;DHT22;11719;51.052;6.982;2023-04-03T02:03:02;11.50;99.90
16243;DHT22;11719;51.052;6.982;2023-04-03T02:05:28;11.80;99.90
16243;DHT22;11719;51.052;6.982;2023-04-03T02:07:54;12.20;99.90
16243;DHT22;11719;51.052;6.982;2023-04-03T02:10:20;12.50;99.90
16243;DHT22;11719;51.052;6.982;2023-04-03T02:12:46;12.60;99.90
16243;DHT22;11719;51.052;6.982;2023-04-03T02:15:12;13.00;99.90
16243;DHT22;11719;51.052;6.982;2023-04-03T02:17:37;13.30;99.90
16243;DHT22;11719;51.052;6.982;2023-04-03T02:20:04;13.50;99.90
16243;DHT22;11719;51.052;6.982;2023-04-03T02:22:30;13.60;99.90
16243;DHT22;11719;51.052;6.982;2023-04-03T02:24:56;13.70;99.90
16243;DHT22;11719;51.052;6.982;2023-04-03T02:27:22;13.80;99.90
16243;DHT22;11719;51.052;6.982;2023-04-03T02:29:48;13.90;99.90
16243;DHT22;11719;51.052;6.982;2023-04-03T02:32:13;13.90;99.90
16243;DHT22;11719;51.052;6.982;2023-04-03T02:34:39;13.90;99.90
16243;DHT22;11719;51.052;6.982;2023-04-03T02:37:05;13.70;99.90
16243;DHT22;11719;51.052;6.982;2023-04-03T02:39:31;13.50;99.90
16243;DHT22;11719;51.052;6.982;2023-04-03T02:41:57;13.40;99.90
16243;DHT22;11719;51.052;6.982;2023-04-03T02:44:23;13.30;99.90
16243;DHT22;11719;51.052;6.982;2023-04-03T02:46:49;13.30;99.90
16243;DHT22;11719;51.052;6.982;2023-04-03T02:49:15;13.30;99.90
16243;DHT22;11719;51.052;6.982;2023-04-03T02:51:41;13.10;99.90
16243;DHT22;11719;51.052;6.982;2023-04-03T02:54:07;13.10;99.90
16243;DHT22;11719;51.052;6.982;2023-04-03T02:56:33;13.30;99.90
16243;DHT22;11719;51.052;6.982;2023-04-03T02:58:59;13.30;99.90
16243;DHT22;11719;51.052;6.982;2023-04-03T03:01:25;13.30;99.90
16243;DHT22;11719;51.052;6.982;2023-04-03T03:03:54;13.20;99.90
16243;DHT22;11719;51.052;6.982;2023-04-03T03:06:20;13.20;99.90
16243;DHT22;11719;51.052;6.982;2023-04-03T03:08:46;13.10;99.90
16243;DHT22;11719;51.052;6.982;2023-04-03T03:11:12;12.80;99.90
16243;DHT22;11719;51.052;6.982;2023-04-03T03:13:37;12.60;99.90
16243;DHT22;11719;51.052;6.982;2023-04-03T03:16:04;12.50;99.90
16243;DHT22;11719;51.052;6.982;2023-04-03T03:18:30;12.50;99.90
16243;DHT22;11719;51.052;6.982;2023-04-03T03:20:57;12.70;99.90
16243;DHT22;11719;51.052;6.982;2023-04-03T03:23:26;13.20;99.90
16243;DHT22;11719;51.052;6.982;2023-04-03T03:26:10;13.60;99.90
16243;DHT22;11719;51.052;6.982;2023-04-03T03:28:37;13.90;99.90
16243;DHT22;11719;51.052;6.982;2023-04-03T03:31:04;14.20;99.90
16243;DHT22;11719;51.052;6.982;2023-04-03T03:33:30;14.40;99.90
16243;DHT22;11719;51.052;6.982;2023-04-03T03:35:56;14.70;99.90
16243;DHT22;11719;51.052;6.982;2023-04-03T03:38:23;14.90;99.90
16243;DHT22;11719;51.052;6.982;2023-04-03T03:40:50;14.90;99.90
16243;DHT22;11719;51.052;6.982;2023-04-03T03:43:17;15.00;99.90
16243;DHT22;11719;51.052;6.982;2023-04-03T03:45:44;15.10;99.90
16243;DHT22;11719;51.052;6.982;2023-04-03T03:48:11;15.20;99.90
16243;DHT22;11719;51.052;6.982;2023-04-03T03:50:37;15.30;99.90
16243;DHT22;11719;51.052;6.982;2023-04-03T03:53:03;15.30;99.90
16243;DHT22;11719;51.052;6.982;2023-04-03T03:55:28;15.30;99.90
16243;DHT22;11719;51.052;6.982;2023-04-03T03:57:54;15.40;99.90
16243;DHT22;11719;51.052;6.982;2023-04-03T04:00:20;15.40;99.90
16243;DHT22;11719;51.052;6.982;2023-04-03T04:02:46;15.50;99.90
16243;DHT22;11719;51.052;6.982;2023-04-03T04:05:12;15.50;99.90
16243;DHT22;11719;51.052;6.982;2023-04-03T04:07:38;15.40;98.90
16243;DHT22;11719;51.052;6.982;2023-04-03T04:10:04;15.40;99.90
16243;DHT22;11719;51.052;6.982;2023-04-03T04:12:30;15.40;99.90
16243;DHT22;11719;51.052;6.982;2023-04-03T04:14:56;15.40;99.90
16243;DHT22;11719;51.052;6.982;2023-04-03T04:17:22;15.30;99.70
16243;DHT22;11719;51.052;6.982;2023-04-03T04:19:47;15.30;99.90
16243;DHT22;11719;51.052;6.982;2023-04-03T04:22:13;15.30;99.90
16243;DHT22;11719;51.052;6.982;2023-04-03T04:24:39;15.40;99.90
16243;DHT22;11719;51.052;6.982;2023-04-03T04:27:05;15.40;99.90
16243;DHT22;11719;51.052;6.982;2023-04-03T04:29:31;15.50;99.90
16243;DHT22;11719;51.052;6.982;2023-04-03T04:32:01;15.60;99.90
16243;DHT22;11719;51.052;6.982;2023-04-03T04:34:28;15.60;99.90
16243;DHT22;11719;51.052;6.982;2023-04-03T04:36:54;15.70;99.90
16243;DHT22;11719;51.052;6.982;2023-04-03T04:39:20;15.70;99.90
16243;DHT22;11719;51.052;6.982;2023-04-03T04:41:46;15.70;99.90
16243;DHT22;11719;51.052;6.982;2023-04-03T04:44:12;15.60;99.90
16243;DHT22;11719;51.052;6.982;2023-04-03T04:46:38;15.60;99.90
16243;DHT22;11719;51.052;6.982;2023-04-03T04:49:03;15.70;99.90
16243;DHT22;11719;51.052;6.982;2023-04-03T04:51:30;15.70;99.90
16243;DHT22;11719;51.052;6.982;2023-04-03T04:53:55;15.60;99.00
16243;DHT22;11719;51.052;6.982;2023-04-03T04:56:21;15.60;99.90
16243;DHT22;11719;51.052;6.982;2023-04-03T04:58:47;15.70;99.90
16243;DHT22;11719;51.052;6.982;2023-04-03T05:01:13;15.70;99.90
16243;DHT22;11719;51.052;6.982;2023-04-03T05:03:39;15.70;99.90
16243;DHT22;11719;51.052;6.982;2023-04-03T05:06:05;15.70;99.90
16243;DHT22;11719;51.052;6.982;2023-04-03T05:08:31;15.60;96.80
16243;DHT22;11719;51.052;6.982;2023-04-03T05:10:57;15.50;99.90
16243;DHT22;11719;51.052;6.982;2023-04-03T05:13:23;15.30;98.70
16243;DHT22;11719;51.052;6.982;2023-04-03T05:15:49;15.30;99.90
16243;DHT22;11719;51.052;6.982;2023-04-03T05:18:15;15.10;96.40
16243;DHT22;11719;51.052;6.982;2023-04-03T05:20:41;14.90;99.90
16243;DHT22;11719;51.052;6.982;2023-04-03T05:23:09;14.50;99.30
16243;DHT22;11719;51.052;6.982;2023-04-03T05:25:38;14.40;99.90
16243;DHT22;11719;51.052;6.982;2023-04-03T05:28:04;14.40;99.90
16243;DHT22;11719;51.052;6.982;2023-04-03T05:30:30;14.40;99.30
16243;DHT22;11719;51.052;6.982;2023-04-03T05:32:56;14.30;99.90
16243;DHT22;11719;51.052;6.982;2023-04-03T05:35:22;14.30;99.90
16243;DHT22;11719;51.052;6.982;2023-04-03T05:37:48;14.20;99.90
16243;DHT22;11719;51.052;6.982;2023-04-03T05:40:14;14.30;99.90
16243;DHT22;11719;51.052;6.982;2023-04-03T05:42:40;14.20;99.90
16243;DHT22;11719;51.052;6.982;2023-04-03T05:45:06;14.20;99.90
16243;DHT22;11719;51.052;6.982;2023-04-03T05:47:32;14.10;99.50
16243;DHT22;11719;51.052;6.982;2023-04-03T05:49:58;14.00;99.90
16243;DHT22;11719;51.052;6.982;2023-04-03T05:52:28;13.80;99.90
16243;DHT22;11719;51.052;6.982;2023-04-03T05:54:57;13.70;98.70
16243;DHT22;11719;51.052;6.982;2023-04-03T05:57:23;13.50;99.90
16243;DHT22;11719;51.052;6.982;2023-04-03T05:59:49;13.50;99.90
16243;DHT22;11719;51.052;6.982;2023-04-03T06:02:17;13.80;99.90
16243;DHT22;11719;51.052;6.982;2023-04-03T06:04:45;14.10;99.90
16243;DHT22;11719;51.052;6.982;2023-04-03T06:07:16;14.30;99.80
16243;DHT22;11719;51.052;6.982;2023-04-03T06:09:45;14.50;99.90
16243;DHT22;11719;51.052;6.982;2023-04-03T06:12:11;14.20;99.90
16243;DHT22;11719;51.052;6.982;2023-04-03T06:14:37;14.10;99.90
16243;DHT22;11719;51.052;6.982;2023-04-03T06:17:03;14.50;99.90
16243;DHT22;11719;51.052;6.982;2023-04-03T06:19:30;14.80;99.90
16243;DHT22;11719;51.052;6.982;2023-04-03T06:21:56;15.00;99.90
16243;DHT22;11719;51.052;6.982;2023-04-03T06:24:22;15.10;99.90
16243;DHT22;11719;51.052;6.982;2023-04-03T06:26:49;15.20;99.90
16243;DHT22;11719;51.052;6.982;2023-04-03T06:29:17;15.20;99.90
16243;DHT22;11719;51.052;6.982;2023-04-03T06:31:44;15.20;99.90
16243;DHT22;11719;51.052;6.982;2023-04-03T06:34:10;15.20;99.90
16243;DHT22;11719;51.052;6.982;2023-04-03T06:36:37;15.30;99.90
16243;DHT22;11719;51.052;6.982;2023-04-03T06:39:03;15.40;99.90
16243;DHT22;11719;51.052;6.982;2023-04-03T06:41:29;15.50;99.90
16243;DHT22;11719;51.052;6.982;2023-04-03T06:43:55;15.60;99.90
16243;DHT22;11719;51.052;6.982;2023-04-03T06:46:23;15.60;96.20
16243;DHT22;11719;51.052;6.982;2023-04-03T06:48:50;15.60;99.90
16243;DHT22;11719;51.052;6.982;2023-04-03T06:51:29;15.70;99.90
16243;DHT22;11719;51.052;6.982;2023-04-03T06:53:57;15.70;99.10
16243;DHT22;11719;51.052;6.982;2023-04-03T06:56:26;15.70;99.90
16243;DHT22;11719;51.052;6.982;2023-04-03T06:58:53;15.80;97.50
16243;DHT22;11719;51.052;6.982;2023-04-03T07:01:24;15.80;99.80
16243;DHT22;11719;51.052;6.982;2023-04-03T07:03:52;15.90;99.30
16243;DHT22;11719;51.052;6.982;2023-04-03T07:06:19;15.90;99.90
16243;DHT22;11719;51.052;6.982;2023-04-03T07:08:46;15.80;98.80
16243;DHT22;11719;51.052;6.982;2023-04-03T07:11:13;15.90;99.90
16243;DHT22;11719;51.052;6.982;2023-04-03T07:13:40;15.90;99.40
16243;DHT22;11719;51.052;6.982;2023-04-03T07:16:07;15.90;99.60
16243;DHT22;11719;51.052;6.982;2023-04-03T07:18:34;16.00;99.30
16243;DHT22;11719;51.052;6.982;2023-04-03T07:21:00;16.00;98.80
16243;DHT22;11719;51.052;6.982;2023-04-03T07:23:27;16.00;99.20
16243;DHT22;11719;51.052;6.982;2023-04-03T07:25:54;16.00;98.80
16243;DHT22;11719;51.052;6.982;2023-04-03T07:28:21;16.10;98.70
16243;DHT22;11719;51.052;6.982;2023-04-03T07:30:50;16.00;99.40
16243;DHT22;11719;51.052;6.982;2023-04-03T07:33:20;16.00;99.60
16243;DHT22;11719;51.052;6.982;2023-04-03T07:35:48;15.90;99.20
16243;DHT22;11719;51.052;6.982;2023-04-03T07:38:14;16.00;99.00
16243;DHT22;11719;51.052;6.982;2023-04-03T07:40:48;15.90;98.60
16243;DHT22;11719;51.052;6.982;2023-04-03T07:43:16;16.00;98.30
16243;DHT22;11719;51.052;6.982;2023-04-03T07:45:43;16.00;92.90
16243;DHT22;11719;51.052;6.982;2023-04-03T07:48:10;16.00;98.00
16243;DHT22;11719;51.052;6.982;2023-04-03T07:50:36;16.00;98.00
16243;DHT22;11719;51.052;6.982;2023-04-03T07:53:03;16.00;98.60
16243;DHT22;11719;51.052;6.982;2023-04-03T07:55:29;16.00;97.90
16243;DHT22;11719;51.052;6.982;2023-04-03T07:57:55;16.00;97.90
16243;DHT22;11719;51.052;6.982;2023-04-03T08:00:21;16.00;97.80
16243;DHT22;11719;51.052;6.982;2023-04-03T08:02:47;16.00;98.80
16243;DHT22;11719;51.052;6.982;2023-04-03T08:05:17;15.90;98.50
16243;DHT22;11719;51.052;6.982;2023-04-03T08:07:44;15.90;98.60
16243;DHT22;11719;51.052;6.982;2023-04-03T08:10:11;16.00;98.60
16243;DHT22;11719;51.052;6.982;2023-04-03T08:12:36;15.90;98.50
16243;DHT22;11719;51.052;6.982;2023-04-03T08:15:03;16.00;98.20
16243;DHT22;11719;51.052;6.982;2023-04-03T08:17:29;16.00;98.40
16243;DHT22;11719;51.052;6.982;2023-04-03T08:19:55;16.00;97.70
16243;DHT22;11719;51.052;6.982;2023-04-03T08:22:21;16.10;96.80
16243;DHT22;11719;51.052;6.982;2023-04-03T08:24:47;16.10;97.80
16243;DHT22;11719;51.052;6.982;2023-04-03T08:27:13;16.10;98.10
16243;DHT22;11719;51.052;6.982;2023-04-03T08:29:38;16.00;97.80
16243;DHT22;11719;51.052;6.982;2023-04-03T08:32:05;16.00;98.10
16243;DHT22;11719;51.052;6.982;2023-04-03T08:34:32;16.00;98.00
16243;DHT22;11719;51.052;6.982;2023-04-03T08:37:00;16.10;97.90
16243;DHT22;11719;51.052;6.982;2023-04-03T08:39:27;16.10;97.50
16243;DHT22;11719;51.052;6.982;2023-04-03T08:41:55;16.10;97.80
16243;DHT22;11719;51.052;6.982;2023-04-03T08:47:23;16.10;96.80
16243;DHT22;11719;51.052;6.982;2023-04-03T08:49:58;16.10;98.00
16243;DHT22;11719;51.052;6.982;2023-04-03T08:55:13;16.00;97.70
16243;DHT22;11719;51.052;6.982;2023-04-03T08:57:45;16.00;97.30
16243;DHT22;11719;51.052;6.982;2023-04-03T09:00:19;16.00;97.20
16243;DHT22;11719;51.052;6.982;2023-04-03T09:02:48;15.90;97.20
16243;DHT22;11719;51.052;6.982;2023-04-03T09:05:18;15.90;97.10
16243;DHT22;11719;51.052;6.982;2023-04-03T09:07:58;16.00;97.10
16243;DHT22;11719;51.052;6.982;2023-04-03T09:10:33;16.00;97.00
16243;DHT22;11719;51.052;6.982;2023-04-03T09:15:53;15.90;96.30
16243;DHT22;11719;51.052;6.982;2023-04-03T09:18:23;15.90;96.20
16243;DHT22;11719;51.052;6.982;2023-04-03T09:21:01;15.90;96.70
16243;DHT22;11719;51.052;6.982;2023-04-03T09:23:46;16.00;96.80
16243;DHT22;11719;51.052;6.982;2023-04-03T09:26:28;15.90;96.40
16243;DHT22;11719;51.052;6.982;2023-04-03T09:28:59;15.90;96.00
16243;DHT22;11719;51.052;6.982;2023-04-03T09:31:38;15.90;96.30
16243;DHT22;11719;51.052;6.982;2023-04-03T09:34:33;15.90;96.30
16243;DHT22;11719;51.052;6.982;2023-04-03T09:37:03;15.90;96.40
16243;DHT22;11719;51.052;6.982;2023-04-03T09:39:33;15.90;96.40
16243;DHT22;11719;51.052;6.982;2023-04-03T09:42:21;15.90;96.30
16243;DHT22;11719;51.052;6.982;2023-04-03T09:44:57;16.00;95.80
16243;DHT22;11719;51.052;6.982;2023-04-03T09:47:28;16.00;95.60
16243;DHT22;11719;51.052;6.982;2023-04-03T09:50:18;16.00;95.50
16243;DHT22;11719;51.052;6.982;2023-04-03T09:52:50;16.00;95.90
16243;DHT22;11719;51.052;6.982;2023-04-03T09:55:26;16.00;95.50
16243;DHT22;11719;51.052;6.982;2023-04-03T09:57:53;16.00;95.90
16243;DHT22;11719;51.052;6.982;2023-04-03T10:00:24;16.00;95.50
16243;DHT22;11719;51.052;6.982;2023-04-03T10:02:54;15.90;95.70
16243;DHT22;11719;51.052;6.982;2023-04-03T10:05:40;15.90;95.40
16243;DHT22;11719;51.052;6.982;2023-04-03T10:10:48;15.90;95.30
16243;DHT22;11719;51.052;6.982;2023-04-03T10:13:19;16.00;94.30
16243;DHT22;11719;51.052;6.982;2023-04-03T10:24:23;16.00;94.90
16243;DHT22;11719;51.052;6.982;2023-04-03T10:30:11;16.00;95.20
16243;DHT22;11719;51.052;6.982;2023-04-03T10:41:36;16.00;93.00
16243;DHT22;11719;51.052;6.982;2023-04-03T10:46:38;16.10;94.40
16243;DHT22;11719;51.052;6.982;2023-04-03T10:52:31;16.10;95.00
16243;DHT22;11719;51.052;6.982;2023-04-03T10:57:40;15.90;94.20
16243;DHT22;11719;51.052;6.982;2023-04-03T11:00:16;16.00;94.00
16243;DHT22;11719;51.052;6.982;2023-04-03T11:02:59;16.10;87.70
16243;DHT22;11719;51.052;6.982;2023-04-03T11:05:46;16.20;93.90
16243;DHT22;11719;51.052;6.982;2023-04-03T11:08:27;16.10;94.40
16243;DHT22;11719;51.052;6.982;2023-04-03T11:11:03;16.00;93.90
16243;DHT22;11719;51.052;6.982;2023-04-03T11:13:42;16.10;93.90
16243;DHT22;11719;51.052;6.982;2023-04-03T11:16:24;16.10;93.60
16243;DHT22;11719;51.052;6.982;2023-04-03T11:19:34;16.10;92.20
16243;DHT22;11719;51.052;6.982;2023-04-03T11:27:58;16.10;93.80
16243;DHT22;11719;51.052;6.982;2023-04-03T11:30:47;16.00;93.40
16243;DHT22;11719;51.052;6.982;2023-04-03T11:33:42;16.10;93.00
16243;DHT22;11719;51.052;6.982;2023-04-03T11:36:28;16.00;93.00
16243;DHT22;11719;51.052;6.982;2023-04-03T11:39:26;16.00;93.00
16243;DHT22;11719;51.052;6.982;2023-04-03T11:47:53;16.10;93.50
16243;DHT22;11719;51.052;6.982;2023-04-03T11:50:41;16.00;93.10
16243;DHT22;11719;51.052;6.982;2023-04-03T11:58:17;16.00;92.00
16243;DHT22;11719;51.052;6.982;2023-04-03T12:16:33;16.00;92.40
16243;DHT22;11719;51.052;6.982;2023-04-03T12:22:20;16.20;90.30
16243;DHT22;11719;51.052;6.982;2023-04-03T12:24:52;16.20;91.00
16243;DHT22;11719;51.052;6.982;2023-04-03T12:27:32;16.20;92.40
16243;DHT22;11719;51.052;6.982;2023-04-03T12:35:27;16.20;91.00
16243;DHT22;11719;51.052;6.982;2023-04-03T12:41:10;16.30;91.10
16243;DHT22;11719;51.052;6.982;2023-04-03T12:46:43;16.30;88.70
16243;DHT22;11719;51.052;6.982;2023-04-03T12:49:41;16.30;91.40
16243;DHT22;11719;51.052;6.982;2023-04-03T12:52:32;16.20;91.40
16243;DHT22;11719;51.052;6.982;2023-04-03T12:55:18;16.20;91.10
16243;DHT22;11719;51.052;6.982;2023-04-03T12:57:46;16.40;89.80
16243;DHT22;11719;51.052;6.982;2023-04-03T13:00:34;16.50;88.80
16243;DHT22;11719;51.052;6.982;2023-04-03T13:03:05;16.50;90.40
16243;DHT22;11719;51.052;6.982;2023-04-03T13:05:32;16.40;91.50
16243;DHT22;11719;51.052;6.982;2023-04-03T13:08:04;16.40;91.20
16243;DHT22;11719;51.052;6.982;2023-04-03T13:10:32;16.40;91.50
16243;DHT22;11719;51.052;6.982;2023-04-03T13:13:14;16.40;91.40
16243;DHT22;11719;51.052;6.982;2023-04-03T13:15:46;16.30;91.60
16243;DHT22;11719;51.052;6.982;2023-04-03T13:21:01;16.50;90.30
16243;DHT22;11719;51.052;6.982;2023-04-03T13:23:32;16.50;91.10
16243;DHT22;11719;51.052;6.982;2023-04-03T13:26:01;16.50;90.70
16243;DHT22;11719;51.052;6.982;2023-04-03T13:28:29;16.40;91.30
16243;DHT22;11719;51.052;6.982;2023-04-03T13:31:28;16.50;90.70
16243;DHT22;11719;51.052;6.982;2023-04-03T13:34:09;16.70;89.10
16243;DHT22;11719;51.052;6.982;2023-04-03T13:37:00;16.90;85.00
16243;DHT22;11719;51.052;6.982;2023-04-03T13:39:27;17.10;82.40
16243;DHT22;11719;51.052;6.982;2023-04-03T13:41:59;17.00;90.30
16243;DHT22;11719;51.052;6.982;2023-04-03T13:44:35;17.00;86.30
16243;DHT22;11719;51.052;6.982;2023-04-03T13:49:38;17.30;86.20
16243;DHT22;11719;51.052;6.982;2023-04-03T13:52:33;16.90;90.50
16243;DHT22;11719;51.052;6.982;2023-04-03T13:58:16;16.60;89.50
16243;DHT22;11719;51.052;6.982;2023-04-03T14:01:18;16.60;90.20
16243;DHT22;11719;51.052;6.982;2023-04-03T14:04:00;16.90;87.10
16243;DHT22;11719;51.052;6.982;2023-04-03T14:06:28;17.10;87.90
16243;DHT22;11719;51.052;6.982;2023-04-03T14:08:54;17.00;87.60
16243;DHT22;11719;51.052;6.982;2023-04-03T14:11:26;16.90;88.70
16243;DHT22;11719;51.052;6.982;2023-04-03T14:13:57;16.80;89.50
16243;DHT22;11719;51.052;6.982;2023-04-03T14:16:28;16.80;89.60
16243;DHT22;11719;51.052;6.982;2023-04-03T14:18:55;16.80;89.70
16243;DHT22;11719;51.052;6.982;2023-04-03T14:21:22;16.80;89.50
16243;DHT22;11719;51.052;6.982;2023-04-03T14:23:48;16.70;88.80
16243;DHT22;11719;51.052;6.982;2023-04-03T14:26:21;16.70;89.30
16243;DHT22;11719;51.052;6.982;2023-04-03T14:28:51;16.80;88.30
16243;DHT22;11719;51.052;6.982;2023-04-03T14:31:19;16.80;88.80
16243;DHT22;11719;51.052;6.982;2023-04-03T14:33:46;17.00;87.00
16243;DHT22;11719;51.052;6.982;2023-04-03T14:38:50;16.90;88.20
16243;DHT22;11719;51.052;6.982;2023-04-03T14:41:21;16.90;87.90
16243;DHT22;11719;51.052;6.982;2023-04-03T14:43:49;16.90;88.30
16243;DHT22;11719;51.052;6.982;2023-04-03T14:48:57;17.30;86.20
16243;DHT22;11719;51.052;6.982;2023-04-03T14:51:23;17.40;84.80
16243;DHT22;11719;51.052;6.982;2023-04-03T14:53:49;17.70;83.00
16243;DHT22;11719;51.052;6.982;2023-04-03T14:56:28;17.60;86.00
16243;DHT22;11719;51.052;6.982;2023-04-03T14:58:59;17.30;84.90
16243;DHT22;11719;51.052;6.982;2023-04-03T15:01:27;17.50;79.00
16243;DHT22;11719;51.052;6.982;2023-04-03T15:03:54;18.40;78.30
16243;DHT22;11719;51.052;6.982;2023-04-03T15:06:20;18.80;76.10
16243;DHT22;11719;51.052;6.982;2023-04-03T15:08:47;18.40;81.00
16243;DHT22;11719;51.052;6.982;2023-04-03T15:11:14;17.90;82.10
16243;DHT22;11719;51.052;6.982;2023-04-03T15:13:40;17.40;85.10
16243;DHT22;11719;51.052;6.982;2023-04-03T15:16:14;16.90;84.80
16243;DHT22;11719;51.052;6.982;2023-04-03T15:18:42;16.70;86.70
16243;DHT22;11719;51.052;6.982;2023-04-03T15:21:09;16.60;88.30
16243;DHT22;11719;51.052;6.982;2023-04-03T15:23:35;16.60;87.20
16243;DHT22;11719;51.052;6.982;2023-04-03T15:26:01;16.50;88.40
16243;DHT22;11719;51.052;6.982;2023-04-03T15:28:34;16.50;88.70
16243;DHT22;11719;51.052;6.982;2023-04-03T15:31:01;16.50;85.00
16243;DHT22;11719;51.052;6.982;2023-04-03T15:33:28;16.60;85.30
16243;DHT22;11719;51.052;6.982;2023-04-03T15:35:54;16.60;83.00
16243;DHT22;11719;51.052;6.982;2023-04-03T15:38:20;16.60;77.40
16243;DHT22;11719;51.052;6.982;2023-04-03T15:40:46;16.40;89.10
16243;DHT22;11719;51.052;6.982;2023-04-03T15:43:13;16.20;88.00
16243;DHT22;11719;51.052;6.982;2023-04-03T15:45:41;16.20;89.20
16243;DHT22;11719;51.052;6.982;2023-04-03T15:48:07;16.20;88.50
16243;DHT22;11719;51.052;6.982;2023-04-03T15:50:34;16.20;89.80
16243;DHT22;11719;51.052;6.982;2023-04-03T15:53:01;16.20;89.30
16243;DHT22;11719;51.052;6.982;2023-04-03T15:55:32;16.20;89.40
16243;DHT22;11719;51.052;6.982;2023-04-03T15:57:59;16.10;90.00
16243;DHT22;11719;51.052;6.982;2023-04-03T16:00:25;16.20;88.20
16243;DHT22;11719;51.052;6.982;2023-04-03T16:02:56;16.20;89.90
16243;DHT22;11719;51.052;6.982;2023-04-03T16:05:24;16.10;90.00
16243;DHT22;11719;51.052;6.982;2023-04-03T16:07:51;16.10;89.00
16243;DHT22;11719;51.052;6.982;2023-04-03T16:10:18;16.20;89.10
16243;DHT22;11719;51.052;6.982;2023-04-03T16:12:44;16.20;86.70
16243;DHT22;11719;51.052;6.982;2023-04-03T16:15:10;16.20;87.10
16243;DHT22;11719;51.052;6.982;2023-04-03T16:17:38;16.20;88.50
16243;DHT22;11719;51.052;6.982;2023-04-03T16:20:07;16.30;87.30
16243;DHT22;11719;51.052;6.982;2023-04-03T16:22:34;16.20;90.20
16243;DHT22;11719;51.052;6.982;2023-04-03T16:25:00;16.20;89.90
16243;DHT22;11719;51.052;6.982;2023-04-03T16:27:27;16.10;90.20
16243;DHT22;11719;51.052;6.982;2023-04-03T16:29:58;16.10;80.90
16243;DHT22;11719;51.052;6.982;2023-04-03T16:32:27;16.10;88.00
16243;DHT22;11719;51.052;6.982;2023-04-03T16:34:55;16.10;90.10
16243;DHT22;11719;51.052;6.982;2023-04-03T16:37:21;16.10;85.70
16243;DHT22;11719;51.052;6.982;2023-04-03T16:39:47;16.10;87.60
16243;DHT22;11719;51.052;6.982;2023-04-03T16:42:13;16.10;88.90
16243;DHT22;11719;51.052;6.982;2023-04-03T16:44:40;16.10;90.20
16243;DHT22;11719;51.052;6.982;2023-04-03T16:47:06;16.10;90.40
16243;DHT22;11719;51.052;6.982;2023-04-03T16:49:33;16.20;87.50
16243;DHT22;11719;51.052;6.982;2023-04-03T16:52:04;16.20;87.00
16243;DHT22;11719;51.052;6.982;2023-04-03T16:54:31;16.20;88.50
16243;DHT22;11719;51.052;6.982;2023-04-03T16:56:58;16.20;88.90
16243;DHT22;11719;51.052;6.982;2023-04-03T16:59:24;16.20;88.30
16243;DHT22;11719;51.052;6.982;2023-04-03T17:01:50;16.20;87.40
16243;DHT22;11719;51.052;6.982;2023-04-03T17:04:16;16.20;85.90
16243;DHT22;11719;51.052;6.982;2023-04-03T17:06:42;16.20;85.20
16243;DHT22;11719;51.052;6.982;2023-04-03T17:09:08;16.00;87.10
16243;DHT22;11719;51.052;6.982;2023-04-03T17:11:34;16.10;87.20
16243;DHT22;11719;51.052;6.982;2023-04-03T17:14:00;16.20;84.80
16243;DHT22;11719;51.052;6.982;2023-04-03T17:16:27;16.20;86.60
16243;DHT22;11719;51.052;6.982;2023-04-03T17:18:54;16.20;85.30
16243;DHT22;11719;51.052;6.982;2023-04-03T17:21:20;16.20;88.60
16243;DHT22;11719;51.052;6.982;2023-04-03T17:23:50;16.10;87.40
16243;DHT22;11719;51.052;6.982;2023-04-03T17:26:23;16.10;88.80
16243;DHT22;11719;51.052;6.982;2023-04-03T17:28:51;16.10;87.30
16243;DHT22;11719;51.052;6.982;2023-04-03T17:31:17;16.20;85.20
16243;DHT22;11719;51.052;6.982;2023-04-03T17:33:43;16.20;86.60
16243;DHT22;11719;51.052;6.982;2023-04-03T17:36:09;16.20;82.30
16243;DHT22;11719;51.052;6.982;2023-04-03T17:38:35;16.20;86.00